< < Back
Terminal Aerodrome Forecast


Current Version              Previous Versions:   1  2  3  4  5  6  7  8  9  

Terminal Aerodrome Forecast

887
FTUS42 KGSP 291316 AAA
TAFAND
TAF AMD
KAND 291316Z 2913/3012 18004KT 4SM BR SKC
     FM291400 23008KT P6SM BKN090
     FM291800 25009KT P6SM -SHRA SCT020 OVC035
     FM292000 26008KT P6SM SCT020 BKN035
     FM292300 31004KT P6SM BKN035
     FM300400 03005KT P6SM SCT040=



Latest METAR

279
SAUS70 KWBC 301700
MTRAND
METAR KAND 301556Z AUTO 08005KT 10SM CLR 17/05 A3007 RMK AO2 SLP180
T01720050


USA.gov is the U.S. government's official web portal to all federal, state and local government web resources and services.